createdAt,value
2023-04-16T00:00:32.940Z,48.20
2023-04-16T00:03:00.052Z,49.10
2023-04-16T00:05:27.907Z,51.20
2023-04-16T00:07:56.090Z,50.70
2023-04-16T00:10:23.249Z,50.07
2023-04-16T00:12:50.007Z,46.67
2023-04-16T00:15:17.179Z,51.20
2023-04-16T00:17:44.000Z,57.77
2023-04-16T00:20:11.776Z,50.63
2023-04-16T00:22:38.596Z,51.10
2023-04-16T00:25:07.788Z,50.20
2023-04-16T00:27:34.678Z,53.13
2023-04-16T00:30:01.883Z,52.33
2023-04-16T00:32:28.789Z,54.03
2023-04-16T00:34:55.941Z,50.20
2023-04-16T00:37:22.789Z,56.17
2023-04-16T00:39:51.149Z,51.13
2023-04-16T00:42:19.426Z,49.33
2023-04-16T00:44:46.549Z,51.30
2023-04-16T00:47:13.384Z,51.53
2023-04-16T00:49:40.769Z,46.63
2023-04-16T00:52:07.876Z,50.60
2023-04-16T00:54:35.304Z,48.43
2023-04-16T00:57:02.935Z,56.73
2023-04-16T00:59:31.533Z,56.03
2023-04-16T01:01:58.564Z,54.70
2023-04-16T01:04:26.623Z,51.90
2023-04-16T01:06:53.865Z,56.80
2023-04-16T01:09:21.126Z,52.30
2023-04-16T01:11:47.969Z,57.43
2023-04-16T01:14:15.054Z,54.17
2023-04-16T01:16:43.185Z,56.07
2023-04-16T01:19:10.524Z,58.30
2023-04-16T01:21:38.942Z,54.13
2023-04-16T01:24:06.598Z,58.97
2023-04-16T01:26:33.465Z,59.20
2023-04-16T01:29:00.730Z,59.50
2023-04-16T01:31:27.570Z,56.70
2023-04-16T01:33:54.721Z,51.20
2023-04-16T01:36:21.580Z,57.33
2023-04-16T01:38:50.642Z,53.77
2023-04-16T01:41:17.922Z,56.17
2023-04-16T01:43:45.088Z,52.63
2023-04-16T01:46:15.551Z,54.00
2023-04-16T01:48:42.913Z,58.90
2023-04-16T01:51:10.442Z,53.70
2023-04-16T01:53:37.482Z,55.00
2023-04-16T01:56:06.773Z,52.30
2023-04-16T01:58:34.380Z,58.40
2023-04-16T02:01:01.720Z,54.77
2023-04-16T02:03:28.791Z,53.90
2023-04-16T02:05:56.234Z,54.27
2023-04-16T02:08:23.370Z,50.80
2023-04-16T02:10:50.934Z,51.67
2023-04-16T02:13:19.111Z,49.97
2023-04-16T02:15:47.107Z,50.80
2023-04-16T02:18:14.212Z,51.93
2023-04-16T02:20:42.119Z,50.90
2023-04-16T02:23:09.724Z,58.20
2023-04-16T02:25:41.665Z,50.07
2023-04-16T02:28:09.214Z,49.17
2023-04-16T02:30:38.611Z,51.80
2023-04-16T02:33:07.324Z,54.13
2023-04-16T02:35:35.034Z,48.30
2023-04-16T02:38:02.315Z,56.83
2023-04-16T02:40:29.841Z,48.20
2023-04-16T02:42:57.120Z,53.13
2023-04-16T02:45:25.305Z,47.60
2023-04-16T02:47:53.558Z,48.63
2023-04-16T02:50:20.747Z,56.33
2023-04-16T02:52:47.708Z,55.20
2023-04-16T02:55:14.873Z,51.03
2023-04-16T02:57:42.484Z,47.97
2023-04-16T03:00:10.802Z,49.40
2023-04-16T03:02:37.685Z,54.83
2023-04-16T03:05:06.741Z,53.67
2023-04-16T03:07:33.876Z,53.00
2023-04-16T03:10:01.037Z,60.60
2023-04-16T03:12:27.875Z,56.23
2023-04-16T03:14:55.099Z,63.57
2023-04-16T03:17:22.375Z,56.37
2023-04-16T03:19:50.778Z,56.67
2023-04-16T03:22:19.338Z,57.47
2023-04-16T03:24:46.159Z,51.97
2023-04-16T03:27:14.322Z,54.93
2023-04-16T03:29:41.486Z,58.30
2023-04-16T03:32:08.655Z,55.53
2023-04-16T03:34:36.762Z,55.47
2023-04-16T03:37:05.826Z,57.30
2023-04-16T03:39:34.616Z,54.30
2023-04-16T03:42:02.547Z,57.47
2023-04-16T03:44:29.423Z,53.10
2023-04-16T03:46:56.842Z,52.07
2023-04-16T03:49:24.039Z,57.90
2023-04-16T03:51:51.513Z,61.30
2023-04-16T03:54:20.144Z,62.37
2023-04-16T03:56:49.940Z,58.17
2023-04-16T03:59:16.806Z,54.70
2023-04-16T04:01:44.184Z,58.67
2023-04-16T04:04:11.237Z,58.33
2023-04-16T04:06:38.472Z,58.30
2023-04-16T04:09:05.325Z,56.47
2023-04-16T04:11:32.564Z,60.00
2023-04-16T04:14:00.764Z,59.13
2023-04-16T04:16:27.838Z,63.43
2023-04-16T04:18:55.587Z,60.37
2023-04-16T04:21:22.880Z,54.93
2023-04-16T04:23:49.747Z,55.13
2023-04-16T04:26:17.414Z,52.50
2023-04-16T04:28:44.395Z,57.57
2023-04-16T04:31:13.223Z,52.90
2023-04-16T04:33:40.336Z,55.37
2023-04-16T04:36:07.972Z,53.60
2023-04-16T04:38:34.823Z,51.93
2023-04-16T04:41:02.001Z,59.50
2023-04-16T04:43:28.883Z,56.50
2023-04-16T04:45:55.966Z,55.77
2023-04-16T04:48:26.970Z,57.33
2023-04-16T04:50:54.201Z,60.83
2023-04-16T04:53:21.627Z,59.77
2023-04-16T04:55:52.267Z,59.40
2023-04-16T04:58:20.963Z,57.67
2023-04-16T05:00:48.256Z,58.77
2023-04-16T05:03:20.457Z,60.53
2023-04-16T05:05:48.945Z,61.57
2023-04-16T05:08:16.052Z,52.27
2023-04-16T05:10:43.267Z,65.30
2023-04-16T05:13:10.071Z,59.27
2023-04-16T05:15:38.081Z,62.10
2023-04-16T05:18:04.885Z,54.97
2023-04-16T05:20:31.998Z,66.20
2023-04-16T05:23:00.144Z,57.97
2023-04-16T05:25:27.397Z,57.97
2023-04-16T05:27:54.241Z,53.43
2023-04-16T05:30:21.571Z,61.57
2023-04-16T05:32:48.415Z,58.77
2023-04-16T05:35:17.470Z,56.70
2023-04-16T05:37:44.634Z,57.30
2023-04-16T05:40:14.601Z,57.77
2023-04-16T05:42:41.478Z,54.07
2023-04-16T05:45:09.388Z,54.53
2023-04-16T05:47:36.265Z,52.87
2023-04-16T05:50:03.610Z,57.47
2023-04-16T05:52:30.574Z,59.70
2023-04-16T05:54:58.364Z,53.63
2023-04-16T05:57:26.547Z,56.20
2023-04-16T05:59:53.692Z,58.97
2023-04-16T06:02:20.804Z,57.77
2023-04-16T06:04:48.137Z,54.97
2023-04-16T06:07:15.019Z,56.93
2023-04-16T06:09:42.326Z,61.83
2023-04-16T06:12:09.934Z,59.17
2023-04-16T06:14:38.450Z,55.40
2023-04-16T06:17:05.277Z,61.40
2023-04-16T06:19:32.439Z,62.07
2023-04-16T06:21:59.426Z,55.47
2023-04-16T06:24:26.560Z,54.07
2023-04-16T06:26:54.309Z,57.90
2023-04-16T06:29:24.013Z,56.33
2023-04-16T06:31:56.348Z,61.20
2023-04-16T06:34:23.694Z,60.10
2023-04-16T06:36:50.594Z,56.20
2023-04-16T06:39:17.994Z,61.13
2023-04-16T06:41:44.852Z,63.63
2023-04-16T06:44:12.000Z,61.10
2023-04-16T06:46:38.855Z,61.80
2023-04-16T06:49:07.689Z,63.43
2023-04-16T06:51:35.123Z,59.53
2023-04-16T06:54:02.679Z,56.87
2023-04-16T06:56:29.471Z,57.57
2023-04-16T06:58:58.081Z,51.07
2023-04-16T07:01:25.833Z,55.17
2023-04-16T07:03:53.112Z,65.47
2023-04-16T07:06:21.495Z,58.20
2023-04-16T07:08:48.666Z,58.80
2023-04-16T07:11:15.534Z,61.67
2023-04-16T07:13:42.692Z,59.53
2023-04-16T07:16:09.771Z,55.50
2023-04-16T07:18:37.225Z,58.03
2023-04-16T07:21:04.314Z,57.10
2023-04-16T07:23:34.272Z,55.33
2023-04-16T07:26:01.181Z,62.27
2023-04-16T07:28:28.328Z,58.60
2023-04-16T07:30:55.569Z,49.00
2023-04-16T07:33:22.624Z,61.67
2023-04-16T07:35:49.471Z,52.13
2023-04-16T07:38:16.794Z,48.47
2023-04-16T07:40:44.979Z,55.80
2023-04-16T07:43:12.283Z,56.70
2023-04-16T07:45:40.066Z,52.30
2023-04-16T07:48:08.128Z,51.97
2023-04-16T07:50:34.917Z,54.70
2023-04-16T07:53:01.809Z,49.40
2023-04-16T07:55:28.915Z,55.30
2023-04-16T07:57:57.137Z,50.90
2023-04-16T08:00:24.393Z,53.93
2023-04-16T08:02:51.355Z,50.87
2023-04-16T08:05:18.798Z,52.30
2023-04-16T08:07:45.656Z,53.87
2023-04-16T08:10:13.309Z,47.27
2023-04-16T08:12:40.662Z,54.40
2023-04-16T08:15:10.240Z,46.90
2023-04-16T08:17:38.014Z,50.07
2023-04-16T08:20:07.066Z,53.17
2023-04-16T08:22:34.378Z,49.97
2023-04-16T08:25:01.679Z,50.07
2023-04-16T08:27:28.779Z,49.47
2023-04-16T08:29:55.558Z,45.60
2023-04-16T08:32:24.093Z,51.37
2023-04-16T08:34:51.199Z,44.67
2023-04-16T08:37:18.386Z,46.23
2023-04-16T08:39:45.266Z,47.50
2023-04-16T08:42:18.981Z,49.93
2023-04-16T08:44:52.178Z,45.33
2023-04-16T08:47:22.692Z,50.83
2023-04-16T08:49:56.301Z,47.80
2023-04-16T08:52:30.736Z,48.67
2023-04-16T08:55:04.904Z,60.30
2023-04-16T08:57:40.043Z,55.63
2023-04-16T09:00:08.895Z,45.37
2023-04-16T09:02:36.895Z,43.07
2023-04-16T09:05:07.050Z,41.30
2023-04-16T09:07:34.747Z,39.20
2023-04-16T09:10:02.023Z,38.37
2023-04-16T09:12:31.008Z,34.00
2023-04-16T09:15:01.091Z,36.77
2023-04-16T09:17:28.833Z,33.90
2023-04-16T09:19:55.714Z,35.53
2023-04-16T09:22:23.986Z,33.33
2023-04-16T09:24:51.230Z,32.27
2023-04-16T09:27:18.239Z,33.70
2023-04-16T09:29:45.879Z,35.63
2023-04-16T09:32:12.854Z,43.10
2023-04-16T09:34:56.842Z,34.20
2023-04-16T09:37:26.068Z,36.00
2023-04-16T09:39:55.499Z,35.57
2023-04-16T09:42:24.405Z,30.70
2023-04-16T09:44:52.622Z,32.37
2023-04-16T09:47:20.093Z,34.57
2023-04-16T09:49:47.590Z,30.97
2023-04-16T09:52:15.531Z,34.63
2023-04-16T09:54:51.848Z,32.40
2023-04-16T09:57:20.963Z,31.83
2023-04-16T09:59:48.282Z,32.40
2023-04-16T10:02:16.588Z,32.73
2023-04-16T10:04:48.155Z,30.60
2023-04-16T10:07:15.163Z,33.00
2023-04-16T10:09:42.700Z,32.57
2023-04-16T10:12:12.905Z,36.60
2023-04-16T10:14:40.986Z,35.37
2023-04-16T10:17:08.508Z,37.07
2023-04-16T10:19:36.270Z,39.90
2023-04-16T10:22:03.828Z,38.30
2023-04-16T10:24:32.797Z,36.90
2023-04-16T10:27:00.614Z,44.03
2023-04-16T10:29:31.463Z,38.90
2023-04-16T10:31:59.556Z,37.97
2023-04-16T10:34:27.974Z,37.37
2023-04-16T10:36:55.428Z,36.93
2023-04-16T10:39:24.352Z,37.83
2023-04-16T10:42:06.129Z,33.57
2023-04-16T10:44:34.913Z,35.80
2023-04-16T10:47:01.844Z,43.27
2023-04-16T10:49:29.249Z,44.97
2023-04-16T10:51:57.484Z,49.40
2023-04-16T10:54:26.797Z,45.27
2023-04-16T10:56:56.512Z,43.53
2023-04-16T10:59:24.670Z,40.50
2023-04-16T11:01:55.832Z,42.37
2023-04-16T11:04:37.081Z,42.23
2023-04-16T11:07:15.481Z,32.23
2023-04-16T11:10:02.662Z,28.70
2023-04-16T11:12:34.513Z,32.47
2023-04-16T11:15:03.717Z,30.50
2023-04-16T11:17:33.685Z,32.37
2023-04-16T11:20:00.991Z,32.30
2023-04-16T11:22:28.318Z,29.40
2023-04-16T11:24:56.842Z,35.03
2023-04-16T11:27:24.081Z,37.67
2023-04-16T11:29:59.498Z,37.03
2023-04-16T11:32:26.650Z,33.67
2023-04-16T11:34:55.298Z,38.80
2023-04-16T11:37:31.925Z,41.00
2023-04-16T11:39:58.809Z,33.60
2023-04-16T11:42:28.465Z,46.10
2023-04-16T11:44:56.509Z,40.60
2023-04-16T11:47:24.642Z,38.87
2023-04-16T11:49:51.952Z,34.43
2023-04-16T11:52:27.468Z,35.87
2023-04-16T11:54:54.928Z,36.67
2023-04-16T11:57:26.673Z,35.07
2023-04-16T12:00:01.361Z,100.93
2023-04-16T12:02:38.434Z,51.03
2023-04-16T12:05:07.843Z,46.53
2023-04-16T12:07:48.120Z,44.97
2023-04-16T12:10:15.292Z,48.23
2023-04-16T12:12:42.300Z,37.47
2023-04-16T12:15:09.995Z,30.70
2023-04-16T12:17:38.433Z,31.30
2023-04-16T12:20:11.320Z,35.77
2023-04-16T12:22:40.017Z,30.30
2023-04-16T12:25:11.951Z,31.37
2023-04-16T12:27:52.345Z,34.10
2023-04-16T12:30:22.588Z,39.20
2023-04-16T12:32:52.035Z,34.93
2023-04-16T12:35:31.348Z,30.87
2023-04-16T12:37:58.244Z,26.87
2023-04-16T12:40:27.103Z,28.57
2023-04-16T12:42:54.194Z,30.17
2023-04-16T12:45:21.584Z,30.60
2023-04-16T12:47:48.516Z,31.30
2023-04-16T12:50:16.036Z,31.63
2023-04-16T12:52:43.078Z,32.50
2023-04-16T12:55:10.737Z,29.93
2023-04-16T12:57:41.580Z,30.37
2023-04-16T13:00:13.034Z,33.17
2023-04-16T13:02:39.994Z,28.13
2023-04-16T13:05:08.479Z,30.13
2023-04-16T13:07:35.740Z,27.63
2023-04-16T13:10:02.792Z,30.13
2023-04-16T13:12:29.963Z,28.67
2023-04-16T13:14:58.177Z,31.17
2023-04-16T13:17:25.404Z,32.13
2023-04-16T13:19:52.297Z,27.93
2023-04-16T13:22:19.254Z,37.50
2023-04-16T13:24:46.275Z,31.43
2023-04-16T13:27:15.130Z,31.97
2023-04-16T13:29:41.980Z,27.03
2023-04-16T13:32:10.225Z,28.40
2023-04-16T13:34:37.446Z,30.60
2023-04-16T13:37:04.581Z,25.53
2023-04-16T13:39:31.747Z,27.03
2023-04-16T13:41:58.580Z,25.20
2023-04-16T13:44:25.618Z,27.50
2023-04-16T13:46:52.941Z,29.60
2023-04-16T13:49:21.760Z,28.33
2023-04-16T13:51:48.682Z,26.93
2023-04-16T13:54:15.826Z,35.20
2023-04-16T13:56:42.737Z,25.23
2023-04-16T13:59:09.881Z,23.50
2023-04-16T14:01:36.925Z,27.83
2023-04-16T14:04:06.976Z,26.23
2023-04-16T14:06:35.569Z,22.97
2023-04-16T14:09:02.950Z,30.90
2023-04-16T14:11:29.932Z,27.50
2023-04-16T14:13:57.255Z,29.40
2023-04-16T14:16:24.065Z,24.60
2023-04-16T14:18:52.199Z,27.00
2023-04-16T14:21:19.077Z,24.27
2023-04-16T14:23:47.670Z,22.13
2023-04-16T14:26:14.590Z,24.27
2023-04-16T14:28:42.008Z,24.90
2023-04-16T14:31:09.155Z,24.30
2023-04-16T14:33:37.295Z,24.47
2023-04-16T14:36:04.988Z,27.37
2023-04-16T14:38:32.332Z,23.73
2023-04-16T14:41:00.623Z,25.97
2023-04-16T14:43:27.914Z,25.37
2023-04-16T14:45:54.931Z,104.97
2023-04-16T14:48:22.470Z,32.53
2023-04-16T14:50:49.349Z,41.03
2023-04-16T14:53:16.710Z,45.73
2023-04-16T14:55:44.056Z,30.67
2023-04-16T14:58:12.593Z,28.57
2023-04-16T15:00:39.460Z,26.10
2023-04-16T15:03:07.082Z,29.27
2023-04-16T15:05:35.812Z,26.03
2023-04-16T15:08:04.013Z,31.57
2023-04-16T15:10:31.139Z,28.37
2023-04-16T15:12:58.262Z,26.83
2023-04-16T15:15:26.462Z,29.63
2023-04-16T15:17:53.829Z,26.13
2023-04-16T15:20:20.790Z,29.23
2023-04-16T15:22:47.952Z,26.93
2023-04-16T15:25:14.977Z,28.73
2023-04-16T15:27:42.069Z,25.07
2023-04-16T15:30:09.894Z,27.90
2023-04-16T15:32:38.589Z,23.70
2023-04-16T15:35:06.084Z,22.50
2023-04-16T15:37:33.285Z,17.87
2023-04-16T15:40:00.241Z,22.00
2023-04-16T15:42:27.444Z,14.53
2023-04-16T15:44:54.234Z,13.03
2023-04-16T15:47:21.659Z,14.83
2023-04-16T15:49:49.794Z,14.53
2023-04-16T15:52:17.065Z,12.03
2023-04-16T15:54:43.910Z,11.83
2023-04-16T15:57:11.069Z,14.43
2023-04-16T15:59:37.868Z,13.13
2023-04-16T16:02:05.062Z,10.80
2023-04-16T16:04:32.517Z,13.33
2023-04-16T16:07:03.281Z,13.30
2023-04-16T16:09:30.505Z,11.43
2023-04-16T16:11:59.939Z,12.60
2023-04-16T16:14:26.913Z,11.97
2023-04-16T16:16:54.180Z,13.13
2023-04-16T16:19:21.085Z,12.27
2023-04-16T16:21:48.207Z,10.07
2023-04-16T16:24:16.409Z,14.47
2023-04-16T16:26:43.323Z,11.73
2023-04-16T16:29:10.587Z,13.10
2023-04-16T16:31:37.753Z,11.77
2023-04-16T16:34:04.992Z,14.07
2023-04-16T16:36:34.138Z,11.90
2023-04-16T16:39:01.858Z,15.50
2023-04-16T16:41:30.854Z,16.67
2023-04-16T16:43:59.244Z,17.57
2023-04-16T16:46:26.310Z,13.60
2023-04-16T16:48:53.780Z,14.37
2023-04-16T16:51:21.094Z,13.23
2023-04-16T16:53:48.308Z,16.10
2023-04-16T16:56:15.144Z,15.93
2023-04-16T16:58:44.183Z,14.57
2023-04-16T17:01:11.151Z,15.90
2023-04-16T17:03:38.849Z,16.57
2023-04-16T17:06:06.121Z,12.77
2023-04-16T17:08:33.363Z,19.17
2023-04-16T17:11:02.998Z,14.77
2023-04-16T17:13:32.975Z,24.53
2023-04-16T17:16:01.290Z,14.10
2023-04-16T17:18:28.206Z,17.47
2023-04-16T17:20:55.035Z,20.27
2023-04-16T17:23:21.911Z,14.80
2023-04-16T17:25:49.403Z,19.87
2023-04-16T17:28:16.418Z,16.73
2023-04-16T17:30:44.058Z,17.00
2023-04-16T17:33:12.285Z,20.93
2023-04-16T17:35:43.180Z,15.83
2023-04-16T17:38:10.239Z,19.93
2023-04-16T17:40:37.062Z,22.00
2023-04-16T17:43:04.024Z,17.17
2023-04-16T17:45:30.854Z,13.67
2023-04-16T17:47:57.778Z,13.50
2023-04-16T17:50:26.739Z,13.13
2023-04-16T17:52:53.867Z,17.03
2023-04-16T17:55:20.840Z,15.20
2023-04-16T17:57:48.078Z,15.17
2023-04-16T18:00:16.160Z,22.97
2023-04-16T18:02:43.618Z,18.20
2023-04-16T18:05:10.951Z,13.83
2023-04-16T18:07:39.451Z,19.63
2023-04-16T18:10:08.012Z,16.70
2023-04-16T18:12:35.257Z,20.87
2023-04-16T18:15:02.075Z,19.43
2023-04-16T18:17:29.406Z,17.73
2023-04-16T18:19:56.832Z,17.07
2023-04-16T18:22:25.648Z,22.10
2023-04-16T18:24:55.401Z,22.07
2023-04-16T18:27:23.232Z,22.53
2023-04-16T18:29:51.379Z,21.30
2023-04-16T18:32:19.699Z,18.73
2023-04-16T18:34:46.670Z,21.57
2023-04-16T18:37:13.745Z,17.37
2023-04-16T18:39:40.580Z,17.33
2023-04-16T18:42:09.269Z,18.73
2023-04-16T18:44:36.402Z,18.43
2023-04-16T18:47:03.326Z,20.90
2023-04-16T18:49:30.471Z,19.57
2023-04-16T18:51:57.439Z,22.13
2023-04-16T18:54:24.433Z,24.20
2023-04-16T18:56:51.396Z,22.97
2023-04-16T18:59:19.588Z,25.57
2023-04-16T19:01:46.397Z,21.23
2023-04-16T19:04:13.254Z,22.13
2023-04-16T19:06:40.228Z,23.27
2023-04-16T19:09:08.833Z,27.07
2023-04-16T19:11:37.687Z,21.93
2023-04-16T19:14:05.724Z,21.03
2023-04-16T19:16:34.029Z,26.03
2023-04-16T19:19:01.422Z,21.57
2023-04-16T19:21:28.270Z,26.97
2023-04-16T19:23:55.284Z,23.67
2023-04-16T19:26:22.118Z,26.03
2023-04-16T19:28:49.239Z,24.77
2023-04-16T19:31:16.278Z,22.97
2023-04-16T19:33:44.480Z,22.83
2023-04-16T19:36:11.360Z,25.50
2023-04-16T19:38:39.015Z,22.30
2023-04-16T19:41:05.994Z,28.77
2023-04-16T19:43:33.023Z,23.43
2023-04-16T19:46:00.084Z,23.27
2023-04-16T19:48:27.134Z,26.07
2023-04-16T19:50:55.342Z,24.00
2023-04-16T19:53:22.235Z,28.00
2023-04-16T19:55:49.161Z,24.47
2023-04-16T19:58:16.058Z,21.30
2023-04-16T20:00:43.171Z,22.43
2023-04-16T20:03:10.316Z,31.23
2023-04-16T20:05:37.109Z,23.70
2023-04-16T20:08:06.202Z,25.10
2023-04-16T20:10:33.084Z,24.60
2023-04-16T20:13:00.143Z,21.60
2023-04-16T20:15:27.377Z,21.43
2023-04-16T20:17:56.514Z,24.93
2023-04-16T20:20:23.627Z,20.40
2023-04-16T20:22:50.807Z,21.80
2023-04-16T20:25:19.242Z,21.17
2023-04-16T20:27:46.348Z,21.37
2023-04-16T20:30:14.292Z,21.67
2023-04-16T20:32:41.195Z,19.83
2023-04-16T20:35:10.931Z,20.33
2023-04-16T20:37:38.567Z,21.93
2023-04-16T20:40:08.319Z,21.97
2023-04-16T20:42:36.989Z,19.20
2023-04-16T20:45:04.798Z,20.20
2023-04-16T20:47:34.752Z,17.43
2023-04-16T20:50:02.010Z,24.73
2023-04-16T20:52:28.961Z,21.93
2023-04-16T20:54:55.840Z,19.27
2023-04-16T20:57:22.689Z,20.63
2023-04-16T20:59:51.054Z,21.13
2023-04-16T21:02:18.354Z,22.97
2023-04-16T21:04:45.524Z,21.23
2023-04-16T21:07:13.170Z,21.27
2023-04-16T21:09:39.968Z,23.43
2023-04-16T21:12:07.666Z,19.57
2023-04-16T21:14:34.533Z,19.87
2023-04-16T21:17:02.654Z,20.33
2023-04-16T21:19:29.433Z,18.97
2023-04-16T21:21:56.696Z,24.73
2023-04-16T21:24:23.526Z,26.17
2023-04-16T21:26:50.648Z,22.13
2023-04-16T21:29:17.623Z,21.67
2023-04-16T21:31:44.905Z,22.93
2023-04-16T21:34:13.467Z,22.00
2023-04-16T21:36:40.467Z,22.03
2023-04-16T21:39:07.309Z,18.07
2023-04-16T21:41:34.475Z,26.13
2023-04-16T21:44:01.362Z,20.40
2023-04-16T21:46:28.303Z,20.77
2023-04-16T21:48:55.352Z,24.87
2023-04-16T21:51:29.582Z,21.93
2023-04-16T21:53:56.637Z,26.17
2023-04-16T21:56:24.113Z,20.03
2023-04-16T21:58:51.224Z,24.20
2023-04-16T22:01:18.318Z,24.70
2023-04-16T22:03:47.473Z,22.33
2023-04-16T22:06:17.012Z,24.40
2023-04-16T22:08:45.208Z,22.13
2023-04-16T22:11:12.423Z,22.90
2023-04-16T22:13:42.000Z,22.13
2023-04-16T22:16:11.561Z,20.30
2023-04-16T22:18:38.860Z,21.50
2023-04-16T22:21:06.450Z,25.33
2023-04-16T22:23:33.721Z,21.07
2023-04-16T22:26:03.075Z,26.00
2023-04-16T22:28:30.270Z,21.77
2023-04-16T22:30:57.312Z,23.80
2023-04-16T22:33:24.226Z,23.43
2023-04-16T22:35:51.473Z,21.50
2023-04-16T22:38:18.285Z,19.23
2023-04-16T22:40:47.985Z,22.23
2023-04-16T22:43:17.569Z,22.17
2023-04-16T22:45:46.603Z,23.33
2023-04-16T22:48:13.447Z,23.30
2023-04-16T22:50:41.314Z,23.27
2023-04-16T22:53:08.118Z,18.60
2023-04-16T22:55:35.169Z,21.83
2023-04-16T22:58:01.999Z,19.37
2023-04-16T23:00:30.761Z,19.27
2023-04-16T23:02:57.647Z,19.13
2023-04-16T23:05:24.615Z,18.43
2023-04-16T23:07:51.851Z,24.27
2023-04-16T23:10:18.765Z,23.97
2023-04-16T23:12:46.027Z,23.90
2023-04-16T23:15:12.918Z,23.30
2023-04-16T23:17:41.896Z,21.37
2023-04-16T23:20:10.058Z,21.63
2023-04-16T23:22:37.330Z,19.70
2023-04-16T23:25:04.623Z,21.07
2023-04-16T23:27:32.807Z,21.30
2023-04-16T23:29:59.648Z,20.53
2023-04-16T23:32:26.999Z,19.50
2023-04-16T23:34:55.352Z,22.73
2023-04-16T23:37:22.545Z,21.53
2023-04-16T23:39:49.388Z,24.83
2023-04-16T23:42:16.794Z,22.47
2023-04-16T23:44:43.697Z,19.27
2023-04-16T23:47:11.006Z,20.37
2023-04-16T23:49:38.254Z,25.37
2023-04-16T23:52:06.962Z,26.17
2023-04-16T23:54:33.938Z,21.27
2023-04-16T23:57:02.149Z,22.97
2023-04-16T23:59:29.006Z,22.70
